createdAt,value
2022-09-03T00:00:02.125Z,0.19999999999999998
2022-09-03T00:01:03.801Z,0.4444444444444445
2022-09-03T00:02:03.170Z,0.4361111111111111
2022-09-03T00:03:01.180Z,0.4361111111111111
2022-09-03T00:04:01.128Z,0.35833333333333334
2022-09-03T00:05:01.490Z,0.5416666666666666
2022-09-03T00:06:07.636Z,0.6166666666666667
2022-09-03T00:07:01.135Z,0.2777777777777778
2022-09-03T00:08:01.125Z,0.47777777777777775
2022-09-03T00:09:01.142Z,0.15833333333333333
2022-09-03T00:10:01.564Z,0.15833333333333333
2022-09-03T00:11:10.049Z,0.2777777777777778
2022-09-03T00:12:02.402Z,0.3972222222222222
2022-09-03T00:13:01.106Z,0.35833333333333334
2022-09-03T00:14:01.462Z,0.25833333333333336
2022-09-03T00:15:01.076Z,0.2777777777777778
2022-09-03T00:16:13.499Z,0.4666666666666666
2022-09-03T00:17:01.790Z,0.2777777777777778
2022-09-03T00:18:01.088Z,0.23888888888888887
2022-09-03T00:19:01.103Z,0.31666666666666665
2022-09-03T00:20:01.098Z,0.15833333333333333
2022-09-03T00:21:01.118Z,0.35833333333333334
2022-09-03T00:22:01.125Z,0.35833333333333334
2022-09-03T00:23:01.135Z,0.19999999999999998
2022-09-03T00:24:01.038Z,0.23888888888888887
2022-09-03T00:25:00.736Z,0.4361111111111111
2022-09-03T00:26:00.739Z,0.2777777777777778
2022-09-03T00:27:00.421Z,0.3972222222222222
2022-09-03T00:28:00.127Z,0.2777777777777778
2022-09-03T00:28:59.925Z,0.31666666666666665
2022-09-03T00:29:59.716Z,0.23888888888888887
2022-09-03T00:31:01.479Z,0.2777777777777778
2022-09-03T00:32:02.426Z,0.08055555555555555
2022-09-03T00:33:01.699Z,0.19999999999999998
2022-09-03T00:34:01.325Z,0.31666666666666665
2022-09-03T00:35:04.016Z,0.18611111111111112
2022-09-03T00:36:02.350Z,0.07777777777777778
2022-09-03T00:37:01.121Z,0.35833333333333334
2022-09-03T00:38:01.128Z,0.2777777777777778
2022-09-03T00:39:01.151Z,0.2777777777777778
2022-09-03T00:40:01.163Z,0.08055555555555555
2022-09-03T00:41:01.144Z,0.15833333333333333
2022-09-03T00:42:01.571Z,0.19999999999999998
2022-09-03T00:43:01.335Z,0.15833333333333333
2022-09-03T00:44:01.435Z,0
2022-09-03T00:45:02.160Z,0
2022-09-03T00:46:01.134Z,0
2022-09-03T00:47:01.070Z,0
2022-09-03T00:48:01.094Z,0
2022-09-03T00:49:01.095Z,0
2022-09-03T00:50:01.097Z,0
2022-09-03T00:51:01.110Z,0
2022-09-03T00:52:01.117Z,0
2022-09-03T00:53:01.130Z,0
2022-09-03T00:54:01.367Z,0
2022-09-03T00:55:01.524Z,0
2022-09-03T00:56:01.245Z,0
2022-09-03T00:57:01.292Z,0
2022-09-03T00:58:01.039Z,0
2022-09-03T00:59:01.060Z,0
2022-09-03T01:00:01.028Z,0
2022-09-03T01:01:01.067Z,0
2022-09-03T01:02:01.612Z,0
2022-09-03T01:03:02.165Z,0
2022-09-03T01:04:01.396Z,0
2022-09-03T01:05:01.126Z,0
2022-09-03T01:06:02.013Z,0
2022-09-03T01:07:01.763Z,0
2022-09-03T01:08:01.057Z,0
2022-09-03T01:09:01.476Z,0
2022-09-03T01:10:01.472Z,0.2777777777777778
2022-09-03T01:11:02.563Z,0.21388888888888888
2022-09-03T01:12:01.120Z,0.05833333333333333
2022-09-03T01:13:01.170Z,0.11944444444444444
2022-09-03T01:14:01.971Z,0.19999999999999998
2022-09-03T01:15:01.873Z,0
2022-09-03T01:16:01.783Z,0
2022-09-03T01:17:01.068Z,0
2022-09-03T01:18:01.077Z,0
2022-09-03T01:19:01.122Z,0
2022-09-03T01:20:01.509Z,0
2022-09-03T01:21:01.210Z,0
2022-09-03T01:22:01.908Z,0
2022-09-03T01:23:01.856Z,0
2022-09-03T01:24:01.116Z,0
2022-09-03T01:25:01.135Z,0
2022-09-03T01:26:01.129Z,0
2022-09-03T01:27:01.199Z,0
2022-09-03T01:28:01.476Z,0.2777777777777778
2022-09-03T01:29:01.420Z,0.21388888888888888
2022-09-03T01:30:02.256Z,0.15833333333333333
2022-09-03T01:31:02.338Z,0.23888888888888887
2022-09-03T01:32:01.731Z,0.2333333333333333
2022-09-03T01:33:01.084Z,0.2777777777777778
2022-09-03T01:34:01.095Z,0.3972222222222222
2022-09-03T01:35:01.087Z,0.3
2022-09-03T01:36:01.079Z,0.31666666666666665
2022-09-03T01:37:01.592Z,0.3194444444444444
2022-09-03T01:38:01.571Z,0.35833333333333334
2022-09-03T01:39:02.337Z,0.47777777777777775
2022-09-03T01:40:01.248Z,0.4361111111111111
2022-09-03T01:41:01.163Z,0.4361111111111111
2022-09-03T01:42:04.145Z,0.6027777777777777
2022-09-03T01:43:01.125Z,0.31666666666666665
2022-09-03T01:44:01.147Z,0.31666666666666665
2022-09-03T01:45:01.687Z,0.35833333333333334
2022-09-03T01:46:01.817Z,0.35833333333333334
2022-09-03T01:47:06.135Z,0.39444444444444443
2022-09-03T01:48:02.063Z,0.4527777777777777
2022-09-03T01:49:02.049Z,0.31666666666666665
2022-09-03T01:50:01.070Z,0.35833333333333334
2022-09-03T01:51:01.088Z,0.35833333333333334
2022-09-03T01:52:09.663Z,0.36944444444444446
2022-09-03T01:53:01.092Z,0.3972222222222222
2022-09-03T01:54:01.148Z,0.23888888888888887
2022-09-03T01:55:01.361Z,0
2022-09-03T01:56:01.358Z,0.35833333333333334
2022-09-03T01:57:19.152Z,0.5166666666666667
2022-09-03T01:58:01.138Z,0.35833333333333334
2022-09-03T01:59:01.153Z,0.6361111111111111
2022-09-03T02:00:01.036Z,0.5166666666666667
2022-09-03T02:01:01.044Z,0.4361111111111111
2022-09-03T02:02:15.488Z,0.2333333333333333
2022-09-03T02:03:01.473Z,0.39444444444444443
2022-09-03T02:04:01.102Z,0.4361111111111111
2022-09-03T02:05:01.078Z,0.5499999999999999
2022-09-03T02:06:01.083Z,0.2777777777777778
2022-09-03T02:07:01.121Z,0.47777777777777775
2022-09-03T02:08:01.131Z,0.2777777777777778
2022-09-03T02:09:01.115Z,0.4361111111111111
2022-09-03T02:10:01.107Z,0.4361111111111111
2022-09-03T02:11:01.040Z,0.3972222222222222
2022-09-03T02:12:01.498Z,0.44166666666666665
2022-09-03T02:13:01.132Z,0.675
2022-09-03T02:14:01.171Z,0.5166666666666667
2022-09-03T02:15:01.035Z,0.31388888888888883
2022-09-03T02:16:01.194Z,0.5555555555555556
2022-09-03T02:17:01.093Z,0.5166666666666667
2022-09-03T02:18:00.902Z,0.4361111111111111
2022-09-03T02:19:00.549Z,0.31666666666666665
2022-09-03T02:20:00.303Z,0.675
2022-09-03T02:20:59.936Z,0.3972222222222222
2022-09-03T02:21:59.628Z,0.15833333333333333
2022-09-03T02:23:01.763Z,0.35833333333333334
2022-09-03T02:24:01.796Z,0.5166666666666667
2022-09-03T02:25:01.314Z,0.2777777777777778
2022-09-03T02:26:01.384Z,0.3972222222222222
2022-09-03T02:27:01.403Z,0.47777777777777775
2022-09-03T02:28:01.337Z,0.23888888888888887
2022-09-03T02:29:02.653Z,0.3972222222222222
2022-09-03T02:30:01.158Z,0.21944444444444444
2022-09-03T02:31:01.224Z,0.5166666666666667
2022-09-03T02:32:02.769Z,0.4361111111111111
2022-09-03T02:33:02.426Z,0.4361111111111111
2022-09-03T02:34:01.055Z,0.47777777777777775
2022-09-03T02:35:01.064Z,0.22222222222222224
2022-09-03T02:36:01.333Z,0.6361111111111111
2022-09-03T02:37:01.423Z,0.35833333333333334
2022-09-03T02:38:01.251Z,0.47777777777777775
2022-09-03T02:39:01.095Z,0.35833333333333334
2022-09-03T02:40:01.260Z,1.0138888888888888
2022-09-03T02:41:01.122Z,0.47777777777777775
2022-09-03T02:42:01.117Z,0.3972222222222222
2022-09-03T02:43:01.122Z,0.31666666666666665
2022-09-03T02:44:01.136Z,0.5166666666666667
2022-09-03T02:45:00.906Z,0.3277777777777778
2022-09-03T02:46:01.585Z,0.4611111111111111
2022-09-03T02:47:01.533Z,0.675
2022-09-03T02:48:01.108Z,0.5972222222222222
2022-09-03T02:49:01.109Z,0.7138888888888888
2022-09-03T02:50:01.082Z,0.2777777777777778
2022-09-03T02:51:01.066Z,0.5555555555555556
2022-09-03T02:52:01.077Z,0.4361111111111111
2022-09-03T02:53:01.466Z,0.7194444444444444
2022-09-03T02:54:01.356Z,0.9138888888888889
2022-09-03T02:55:01.117Z,0.8333333333333333
2022-09-03T02:56:01.126Z,0.4361111111111111
2022-09-03T02:57:01.107Z,0.5166666666666667
2022-09-03T02:58:01.125Z,0.736111111111111
2022-09-03T02:59:01.115Z,0.5555555555555556
2022-09-03T03:00:01.133Z,0.4361111111111111
2022-09-03T03:01:01.200Z,0.4361111111111111
2022-09-03T03:02:01.507Z,0.4361111111111111
2022-09-03T03:03:01.431Z,0.15555555555555556
2022-09-03T03:04:01.441Z,0.475
2022-09-03T03:05:01.094Z,0.35833333333333334
2022-09-03T03:06:01.062Z,0.35833333333333334
2022-09-03T03:07:01.085Z,0.7138888888888888
2022-09-03T03:08:01.879Z,0.5666666666666667
2022-09-03T03:09:01.094Z,0.5555555555555556
2022-09-03T03:10:00.799Z,0.3972222222222222
2022-09-03T03:11:00.689Z,0.5972222222222222
2022-09-03T03:12:00.286Z,0.35833333333333334
2022-09-03T03:13:00.245Z,0.5777777777777778
2022-09-03T03:13:59.884Z,0.5972222222222222
2022-09-03T03:14:59.456Z,0.3222222222222222
2022-09-03T03:16:01.149Z,0.5166666666666667
2022-09-03T03:17:01.232Z,0.35833333333333334
2022-09-03T03:18:01.431Z,0.5666666666666667
2022-09-03T03:19:01.042Z,0.5555555555555556
2022-09-03T03:20:01.074Z,0.15833333333333333
2022-09-03T03:21:01.064Z,0.5555555555555556
2022-09-03T03:22:01.059Z,0.7944444444444444
2022-09-03T03:23:03.478Z,0.7138888888888888
2022-09-03T03:24:01.079Z,0.8333333333333333
2022-09-03T03:25:01.061Z,0.39999999999999997
2022-09-03T03:26:01.171Z,0.7944444444444444
2022-09-03T03:27:01.540Z,0.4305555555555556
2022-09-03T03:28:07.681Z,0.5416666666666666
2022-09-03T03:29:01.420Z,0.5166666666666667
2022-09-03T03:30:00.906Z,0.4361111111111111
2022-09-03T03:31:00.769Z,0.2777777777777778
2022-09-03T03:32:01.138Z,0.5555555555555556
2022-09-03T03:33:10.371Z,0.3805555555555556
2022-09-03T03:34:01.445Z,0.5972222222222222
2022-09-03T03:35:01.207Z,0.6888888888888889
2022-09-03T03:36:01.444Z,0.44166666666666665
2022-09-03T03:37:01.117Z,0.8333333333333333
2022-09-03T03:38:13.438Z,0.5416666666666666
2022-09-03T03:39:01.078Z,0.5166666666666667
2022-09-03T03:40:01.097Z,0.4361111111111111
2022-09-03T03:41:01.033Z,0.2777777777777778
2022-09-03T03:42:01.023Z,0.4361111111111111
2022-09-03T03:43:16.094Z,0.4555555555555555
2022-09-03T03:44:02.035Z,0.44722222222222224
2022-09-03T03:45:01.016Z,0.4666666666666666
2022-09-03T03:46:01.205Z,0.4361111111111111
2022-09-03T03:47:01.126Z,0.35833333333333334
2022-09-03T03:48:00.843Z,0.35833333333333334
2022-09-03T03:49:01.151Z,0.2777777777777778
2022-09-03T03:50:01.230Z,0.675
2022-09-03T03:51:01.062Z,0.47777777777777775
2022-09-03T03:52:01.038Z,0.4361111111111111
2022-09-03T03:53:01.172Z,0.875
2022-09-03T03:54:05.056Z,0.47777777777777775
2022-09-03T03:55:01.487Z,0.5555555555555556
2022-09-03T03:56:01.372Z,0.5555555555555556
2022-09-03T03:57:01.472Z,0.8194444444444444
2022-09-03T03:58:02.541Z,0.5555555555555556
2022-09-03T03:59:02.114Z,0.47777777777777775
2022-09-03T04:00:01.110Z,0.47777777777777775
2022-09-03T04:01:01.157Z,0.5555555555555556
2022-09-03T04:02:01.154Z,0.5555555555555556
2022-09-03T04:03:01.156Z,0.7944444444444444
2022-09-03T04:04:01.135Z,0.6361111111111111
2022-09-03T04:05:01.041Z,0.23888888888888887
2022-09-03T04:06:01.061Z,0.5555555555555556
2022-09-03T04:07:01.440Z,0.8333333333333333
2022-09-03T04:08:00.842Z,0.7944444444444444
2022-09-03T04:09:00.467Z,0.23888888888888887
2022-09-03T04:10:00.197Z,0.3972222222222222
2022-09-03T04:10:59.842Z,0.47777777777777775
2022-09-03T04:12:01.765Z,0.6361111111111111
2022-09-03T04:13:01.773Z,0.47777777777777775
2022-09-03T04:14:02.631Z,0.6416666666666667
2022-09-03T04:15:01.389Z,0.6361111111111111
2022-09-03T04:16:02.121Z,0.5972222222222222
2022-09-03T04:17:01.405Z,0.7944444444444444
2022-09-03T04:18:01.144Z,0.35833333333333334
2022-09-03T04:19:01.174Z,0.4361111111111111
2022-09-03T04:20:01.041Z,0.47777777777777775
2022-09-03T04:21:01.084Z,0.35833333333333334
2022-09-03T04:22:00.563Z,0.4361111111111111
2022-09-03T04:23:00.517Z,0.47777777777777775
2022-09-03T04:24:00.262Z,0.5166666666666667
2022-09-03T04:25:00.141Z,0.5555555555555556
2022-09-03T04:25:59.833Z,0.675
2022-09-03T04:27:02.387Z,0.425
2022-09-03T04:28:00.778Z,0.675
2022-09-03T04:29:02.012Z,0.875
2022-09-03T04:30:01.162Z,0.7944444444444444
2022-09-03T04:31:01.165Z,0.7138888888888888
2022-09-03T04:32:01.150Z,0.31666666666666665
2022-09-03T04:33:01.496Z,0.3833333333333333
2022-09-03T04:34:02.332Z,0.7138888888888888
2022-09-03T04:35:01.043Z,0.5555555555555556
2022-09-03T04:36:01.154Z,0.675
2022-09-03T04:37:01.159Z,0.5555555555555556
2022-09-03T04:38:01.061Z,0.5555555555555556
2022-09-03T04:39:01.058Z,0.4361111111111111
2022-09-03T04:40:01.110Z,0.15833333333333333
2022-09-03T04:41:01.315Z,0.7944444444444444
2022-09-03T04:42:01.467Z,0.7416666666666666
2022-09-03T04:43:01.309Z,0.7944444444444444
2022-09-03T04:44:01.348Z,1.1944444444444444
2022-09-03T04:45:01.137Z,0.5555555555555556
2022-09-03T04:46:01.198Z,0.675
2022-09-03T04:47:01.113Z,0.7138888888888888
2022-09-03T04:48:00.802Z,0.675
2022-09-03T04:49:00.399Z,0.736111111111111
2022-09-03T04:50:03.164Z,0.425
2022-09-03T04:51:02.186Z,1.1444444444444444
2022-09-03T04:52:01.262Z,0.6361111111111111
2022-09-03T04:53:04.503Z,0.8333333333333333
2022-09-03T04:54:01.050Z,0.40555555555555556
2022-09-03T04:55:01.029Z,1.0333333333333334
2022-09-03T04:56:01.064Z,0.875
2022-09-03T04:57:01.079Z,1.1916666666666667
2022-09-03T04:58:01.429Z,0.9305555555555556
2022-09-03T04:59:01.327Z,1.0694444444444444
2022-09-03T05:00:01.000Z,0.5972222222222222
2022-09-03T05:01:01.152Z,0.7138888888888888
2022-09-03T05:02:01.188Z,0.7138888888888888
2022-09-03T05:03:01.121Z,0.19999999999999998
2022-09-03T05:04:01.112Z,0.7
2022-09-03T05:05:01.124Z,0.47777777777777775
2022-09-03T05:06:01.366Z,0.6361111111111111
2022-09-03T05:07:02.585Z,0.8277777777777777
2022-09-03T05:08:01.053Z,1.0722222222222222
2022-09-03T05:09:03.772Z,0.6527777777777778
2022-09-03T05:10:01.336Z,0.8333333333333333
2022-09-03T05:11:02.009Z,0.7944444444444444
2022-09-03T05:12:01.068Z,0.35833333333333334
2022-09-03T05:13:01.083Z,0.47777777777777775
2022-09-03T05:14:06.898Z,0.6138888888888888
2022-09-03T05:15:01.029Z,0.4666666666666666
2022-09-03T05:16:01.205Z,0.9138888888888889
2022-09-03T05:17:01.095Z,0.5555555555555556
2022-09-03T05:18:01.125Z,0.47777777777777775
2022-09-03T05:19:08.586Z,0.6888888888888889
2022-09-03T05:20:01.764Z,0.5722222222222222
2022-09-03T05:21:01.299Z,0.5555555555555556
2022-09-03T05:22:02.757Z,0.7416666666666666
2022-09-03T05:23:01.958Z,0.675
2022-09-03T05:24:13.036Z,1.3777777777777778
2022-09-03T05:25:01.082Z,0.7138888888888888
2022-09-03T05:26:01.058Z,0.35833333333333334
2022-09-03T05:27:01.062Z,0.6361111111111111
2022-09-03T05:28:01.212Z,0.675
2022-09-03T05:29:13.668Z,0.5555555555555556
2022-09-03T05:30:01.120Z,0.6361111111111111
2022-09-03T05:31:01.798Z,0.7555555555555555
2022-09-03T05:32:01.179Z,0.7944444444444444
2022-09-03T05:33:01.437Z,0.5972222222222222
2022-09-03T05:34:18.405Z,0.6194444444444445
2022-09-03T05:35:01.105Z,0.47777777777777775
2022-09-03T05:36:01.036Z,0.35833333333333334
2022-09-03T05:37:01.024Z,0.675
2022-09-03T05:38:01.149Z,0.5555555555555556
2022-09-03T05:39:01.142Z,0.5972222222222222
2022-09-03T05:40:02.049Z,0.6027777777777777
2022-09-03T05:41:02.102Z,0.5361111111111111
2022-09-03T05:42:01.058Z,0.6361111111111111
2022-09-03T05:43:03.364Z,0.47777777777777775
2022-09-03T05:44:01.066Z,0.47777777777777775
2022-09-03T05:45:01.061Z,0.513888888888889
2022-09-03T05:46:01.194Z,1.0333333333333334
2022-09-03T05:47:01.090Z,0.5555555555555556
2022-09-03T05:48:01.166Z,0.5972222222222222
2022-09-03T05:49:00.801Z,0.675
2022-09-03T05:50:00.384Z,1.2722222222222221
2022-09-03T05:51:00.086Z,0.7555555555555555
2022-09-03T05:51:59.793Z,0.9138888888888889
2022-09-03T05:53:01.435Z,0.5972222222222222
2022-09-03T05:54:01.280Z,0.6361111111111111
2022-09-03T05:55:01.953Z,0.7916666666666666
2022-09-03T05:56:01.841Z,0.9944444444444445
2022-09-03T05:57:01.724Z,1.0722222222222222
2022-09-03T05:58:01.088Z,0.675
2022-09-03T05:59:01.077Z,1.1111111111111112
2022-09-03T06:00:01.069Z,0.7944444444444444
2022-09-03T06:01:01.450Z,0.5972222222222222
2022-09-03T06:02:02.270Z,1.3277777777777777
2022-09-03T06:03:01.438Z,0.875
2022-09-03T06:04:01.231Z,0.7555555555555555
2022-09-03T06:05:05.119Z,1.4444444444444444
2022-09-03T06:06:01.119Z,1.0333333333333334
2022-09-03T06:07:01.134Z,0.875
2022-09-03T06:08:01.073Z,0.9944444444444445
2022-09-03T06:09:00.719Z,0.7138888888888888
2022-09-03T06:10:00.248Z,1.3111111111111111
2022-09-03T06:10:59.797Z,1.152777777777778
2022-09-03T06:12:03.839Z,0.7138888888888888
2022-09-03T06:13:01.722Z,0.47777777777777775
2022-09-03T06:14:01.754Z,0.7555555555555555
2022-09-03T06:15:01.276Z,0.9361111111111111
2022-09-03T06:16:01.196Z,0.6361111111111111
2022-09-03T06:17:01.184Z,0.5972222222222222
2022-09-03T06:18:01.866Z,0.5166666666666667
2022-09-03T06:19:01.405Z,0.5972222222222222
2022-09-03T06:20:01.100Z,1.3111111111111111
2022-09-03T06:21:01.038Z,0.675
2022-09-03T06:22:01.111Z,0.7944444444444444
2022-09-03T06:23:01.145Z,0.6361111111111111
2022-09-03T06:24:01.137Z,1.2722222222222221
2022-09-03T06:25:01.138Z,0.8944444444444445
2022-09-03T06:26:05.155Z,0.5972222222222222
2022-09-03T06:27:01.097Z,1.0333333333333334
2022-09-03T06:28:00.858Z,0.7944444444444444
2022-09-03T06:29:00.533Z,0.8333333333333333
2022-09-03T06:30:00.191Z,0.9749999999999999
2022-09-03T06:30:59.941Z,0.4361111111111111
2022-09-03T06:31:59.882Z,0.4361111111111111
2022-09-03T06:32:59.856Z,0.7555555555555555
2022-09-03T06:34:04.289Z,0.675
2022-09-03T06:35:01.785Z,0.9555555555555555
2022-09-03T06:36:03.340Z,1.152777777777778
2022-09-03T06:37:01.121Z,0.7138888888888888
2022-09-03T06:38:01.144Z,0.6361111111111111
2022-09-03T06:39:01.166Z,0.9138888888888889
2022-09-03T06:40:01.574Z,0.8611111111111112
2022-09-03T06:41:01.166Z,1.1111111111111112
2022-09-03T06:42:01.044Z,0.5972222222222222
2022-09-03T06:43:01.438Z,0.5055555555555555
2022-09-03T06:44:02.115Z,1.1833333333333333
2022-09-03T06:45:03.362Z,1.0833333333333333
2022-09-03T06:46:00.828Z,0.9944444444444445
2022-09-03T06:47:00.561Z,1.0722222222222222
2022-09-03T06:48:00.242Z,0.5972222222222222
2022-09-03T06:48:59.857Z,1.0333333333333334
2022-09-03T06:50:00.615Z,0.1611111111111111
2022-09-03T06:51:00.277Z,1.1916666666666667
2022-09-03T06:51:59.882Z,1.2722222222222221
2022-09-03T06:52:59.465Z,0.5972222222222222
2022-09-03T06:54:01.145Z,1.0722222222222222
2022-09-03T06:55:04.601Z,1.1083333333333334
2022-09-03T06:56:01.150Z,1.1111111111111112
2022-09-03T06:57:02.186Z,0.7444444444444445
2022-09-03T06:58:02.119Z,0.8222222222222222
2022-09-03T06:59:02.092Z,1.1916666666666667
2022-09-03T07:00:08.233Z,0.911111111111111
2022-09-03T07:01:02.127Z,1.152777777777778
2022-09-03T07:02:01.210Z,0.6361111111111111
2022-09-03T07:03:02.113Z,0.675
2022-09-03T07:04:02.011Z,0.7138888888888888
2022-09-03T07:05:11.008Z,0.6777777777777777
2022-09-03T07:06:01.489Z,1.3972222222222224
2022-09-03T07:07:01.108Z,0.9944444444444445
2022-09-03T07:08:01.134Z,1.2722222222222221
2022-09-03T07:09:01.340Z,0.9138888888888889
2022-09-03T07:10:13.767Z,0.8972222222222221
2022-09-03T07:11:01.133Z,1.1111111111111112
2022-09-03T07:12:01.159Z,1.35
2022-09-03T07:13:01.157Z,1.152777777777778
2022-09-03T07:14:01.249Z,1.1111111111111112
2022-09-03T07:15:16.773Z,0.75
2022-09-03T07:16:01.191Z,0.7138888888888888
2022-09-03T07:17:01.984Z,0.5972222222222222
2022-09-03T07:18:01.092Z,0.9944444444444445
2022-09-03T07:19:01.100Z,0.8333333333333333
2022-09-03T07:20:01.118Z,1.0333333333333334
2022-09-03T07:21:01.103Z,0.7555555555555555
2022-09-03T07:22:01.109Z,1.0333333333333334
2022-09-03T07:23:01.108Z,1.0333333333333334
2022-09-03T07:24:01.219Z,1.0722222222222222
2022-09-03T07:25:03.311Z,1.2722222222222221
2022-09-03T07:26:01.422Z,1.152777777777778
2022-09-03T07:27:01.144Z,0.675
2022-09-03T07:28:01.166Z,0.7555555555555555
2022-09-03T07:29:00.830Z,1.0722222222222222
2022-09-03T07:30:00.391Z,0.8333333333333333
2022-09-03T07:30:59.976Z,0.9138888888888889
2022-09-03T07:31:59.628Z,0.47777777777777775
2022-09-03T07:33:01.458Z,0.7166666666666667
2022-09-03T07:34:01.083Z,1.0333333333333334
2022-09-03T07:35:01.078Z,0.9527777777777778
2022-09-03T07:36:01.081Z,0.5555555555555556
2022-09-03T07:37:01.088Z,0.9944444444444445
2022-09-03T07:38:02.032Z,1.5888888888888888
2022-09-03T07:39:01.934Z,1.0722222222222222
2022-09-03T07:40:01.227Z,0.6361111111111111
2022-09-03T07:41:01.294Z,0.7944444444444444
2022-09-03T07:42:02.461Z,0.5111111111111111
2022-09-03T07:43:02.299Z,0.7944444444444444
2022-09-03T07:44:01.044Z,1.1111111111111112
2022-09-03T07:45:01.041Z,0.7944444444444444
2022-09-03T07:46:01.356Z,1.0333333333333334
2022-09-03T07:47:02.542Z,0.9083333333333333
2022-09-03T07:48:01.120Z,0.35833333333333334
2022-09-03T07:49:01.771Z,0.7916666666666666
2022-09-03T07:50:01.082Z,1.9472222222222222
2022-09-03T07:51:01.118Z,0.7944444444444444
2022-09-03T07:52:01.087Z,0.7944444444444444
2022-09-03T07:53:01.251Z,1.0722222222222222
2022-09-03T07:54:02.508Z,0.3972222222222222
2022-09-03T07:55:01.922Z,0.7944444444444444
2022-09-03T07:56:01.515Z,1.1666666666666667
2022-09-03T07:57:01.135Z,1.1916666666666667
2022-09-03T07:58:01.156Z,0.875
2022-09-03T07:59:01.143Z,0.7944444444444444
2022-09-03T08:00:01.163Z,1.0722222222222222
2022-09-03T08:01:01.732Z,0.9944444444444445
2022-09-03T08:02:04.047Z,1.152777777777778
2022-09-03T08:03:01.077Z,0.7138888888888888
2022-09-03T08:04:01.243Z,1.511111111111111
2022-09-03T08:05:01.294Z,0.7944444444444444
2022-09-03T08:06:02.240Z,0.6583333333333333
2022-09-03T08:07:01.082Z,0.9138888888888889
2022-09-03T08:08:01.115Z,1.152777777777778
2022-09-03T08:09:05.102Z,1.1916666666666667
2022-09-03T08:10:01.855Z,1.2305555555555554
2022-09-03T08:11:01.312Z,1.2916666666666667
2022-09-03T08:12:02.029Z,0.8333333333333333
2022-09-03T08:13:02.037Z,0.3972222222222222
2022-09-03T08:14:01.507Z,0.9666666666666667
2022-09-03T08:15:01.142Z,1.9472222222222222
2022-09-03T08:16:01.588Z,0.3194444444444444
2022-09-03T08:17:01.726Z,0.15833333333333333
2022-09-03T08:18:03.727Z,0.47777777777777775
2022-09-03T08:19:01.298Z,1.1111111111111112
2022-09-03T08:20:01.081Z,0.5944444444444444
2022-09-03T08:21:01.388Z,0.6527777777777778
2022-09-03T08:22:01.664Z,0.9527777777777778
2022-09-03T08:23:02.110Z,1.6888888888888889
2022-09-03T08:24:01.497Z,0.6361111111111111
2022-09-03T08:25:01.133Z,1.9055555555555557
2022-09-03T08:26:02.261Z,1.2194444444444443
2022-09-03T08:27:01.338Z,0.4361111111111111
2022-09-03T08:28:01.939Z,1.4305555555555556
2022-09-03T08:29:01.448Z,1.1111111111111112
2022-09-03T08:30:01.032Z,1.0722222222222222
2022-09-03T08:31:01.745Z,0.6388888888888888
2022-09-03T08:32:05.097Z,0.9138888888888889
2022-09-03T08:33:01.364Z,1.2305555555555554
2022-09-03T08:34:06.354Z,1.788888888888889
2022-09-03T08:35:01.981Z,1.0333333333333334
2022-09-03T08:36:04.643Z,0.8611111111111112
2022-09-03T08:37:01.089Z,1.0333333333333334
2022-09-03T08:38:01.097Z,0.875
2022-09-03T08:39:01.094Z,0.5166666666666667
2022-09-03T08:40:01.186Z,0.7944444444444444
2022-09-03T08:41:06.101Z,1.2416666666666665
2022-09-03T08:42:01.495Z,1.2027777777777777
2022-09-03T08:43:06.169Z,1.6277777777777778
2022-09-03T08:44:03.000Z,0.31666666666666665
2022-09-03T08:45:01.344Z,1.35
2022-09-03T08:46:09.088Z,0.4555555555555555
2022-09-03T08:47:01.039Z,0.7555555555555555
2022-09-03T08:48:01.061Z,0.5972222222222222
2022-09-03T08:49:01.579Z,0.9527777777777778
2022-09-03T08:50:01.884Z,1.4694444444444443
2022-09-03T08:51:10.794Z,1.3166666666666667
2022-09-03T08:52:02.405Z,0.8555555555555555
2022-09-03T08:53:01.754Z,1.2722222222222221
2022-09-03T08:54:01.039Z,1.1916666666666667
2022-09-03T08:55:01.035Z,1.1111111111111112
2022-09-03T08:56:14.357Z,0.836111111111111
2022-09-03T08:57:01.421Z,1.4694444444444443
2022-09-03T08:58:02.031Z,1.0722222222222222
2022-09-03T08:59:02.655Z,0.8333333333333333
2022-09-03T09:00:01.117Z,0.19999999999999998
2022-09-03T09:01:16.643Z,0.7999999999999999
2022-09-03T09:02:01.344Z,0.8333333333333333
2022-09-03T09:03:01.130Z,1.0722222222222222
2022-09-03T09:04:01.069Z,0.9138888888888889
2022-09-03T09:05:01.059Z,0.47777777777777775
2022-09-03T09:06:01.056Z,1.0722222222222222
2022-09-03T09:07:01.038Z,0.8333333333333333
2022-09-03T09:08:01.191Z,0.5972222222222222
2022-09-03T09:09:01.551Z,2.1055555555555556
2022-09-03T09:10:01.992Z,1.472222222222222
2022-09-03T09:11:01.476Z,0.9138888888888889
2022-09-03T09:12:02.032Z,1.1111111111111112
2022-09-03T09:13:01.126Z,0.9527777777777778
2022-09-03T09:14:01.131Z,0.5166666666666667
2022-09-03T09:15:01.133Z,1.35
2022-09-03T09:16:01.886Z,0.675
2022-09-03T09:17:01.539Z,1.4944444444444445
2022-09-03T09:18:01.141Z,1.35
2022-09-03T09:19:01.457Z,1.1111111111111112
2022-09-03T09:20:01.050Z,0.875
2022-09-03T09:21:01.080Z,1.3111111111111111
2022-09-03T09:22:01.081Z,1.5888888888888888
2022-09-03T09:23:01.069Z,1.3111111111111111
2022-09-03T09:24:01.150Z,0.9944444444444445
2022-09-03T09:25:01.093Z,1.3916666666666666
2022-09-03T09:26:01.093Z,0.6361111111111111
2022-09-03T09:27:01.423Z,0.9805555555555555
2022-09-03T09:28:01.166Z,1.8277777777777777